createdAt,value
2016-05-28T00:02:41.147Z,12.1
2016-05-28T00:05:54.580Z,12.1
2016-05-28T00:09:07.620Z,12.1
2016-05-28T00:12:25.862Z,12.1
2016-05-28T00:15:29.323Z,12
2016-05-28T00:18:42.378Z,12
2016-05-28T00:21:55.389Z,12
2016-05-28T00:25:08.678Z,11.9
2016-05-28T00:28:26.936Z,11.9
2016-05-28T00:31:30.257Z,11.8
2016-05-28T00:34:43.296Z,11.7
2016-05-28T00:37:56.494Z,11.6
2016-05-28T00:41:09.596Z,11.5
2016-05-28T00:44:27.854Z,11.5
2016-05-28T00:47:31.160Z,11.4
2016-05-28T00:50:44.011Z,11.3
2016-05-28T00:53:57.241Z,11.3
2016-05-28T00:57:10.140Z,11.2
2016-05-28T01:00:28.320Z,11.2
2016-05-28T01:03:31.671Z,11.2
2016-05-28T01:06:44.710Z,11.2
2016-05-28T01:09:57.972Z,11.2
2016-05-28T01:13:11.167Z,11.1
2016-05-28T01:16:29.160Z,11
2016-05-28T01:19:32.651Z,10.9
2016-05-28T01:22:45.753Z,10.9
2016-05-28T01:25:59.170Z,10.8
2016-05-28T01:29:12.367Z,10.8
2016-05-28T01:32:30.686Z,10.8
2016-05-28T01:35:34.069Z,10.8
2016-05-28T01:38:47.171Z,10.8
2016-05-28T01:41:59.948Z,10.8
2016-05-28T01:45:11.065Z,10.8
2016-05-28T01:48:31.057Z,10.8
2016-05-28T01:51:34.206Z,10.7
2016-05-28T01:54:47.089Z,10.7
2016-05-28T01:57:59.897Z,10.7
2016-05-28T02:01:12.733Z,10.7
2016-05-28T02:04:30.507Z,10.6
2016-05-28T02:07:33.547Z,10.5
2016-05-28T02:10:46.446Z,10.5
2016-05-28T02:13:59.143Z,10.4
2016-05-28T02:17:11.823Z,10.4
2016-05-28T02:20:29.894Z,10.4
2016-05-28T02:23:32.824Z,10.4
2016-05-28T02:26:45.285Z,10.5
2016-05-28T02:29:57.795Z,10.4
2016-05-28T02:33:10.397Z,10.4
2016-05-28T02:36:28.218Z,10.4
2016-05-28T02:39:31.102Z,10.3
2016-05-28T02:42:43.890Z,10.3
2016-05-28T02:45:56.480Z,10.3
2016-05-28T02:49:06.596Z,10.3
2016-05-28T02:52:24.246Z,10.2
2016-05-28T02:55:27.206Z,10.2
2016-05-28T02:58:39.808Z,10.1
2016-05-28T03:01:52.253Z,10.1
2016-05-28T03:05:01.593Z,10.1
2016-05-28T03:08:14.133Z,10.1
2016-05-28T03:11:31.828Z,10.1
2016-05-28T03:14:34.680Z,10.1
2016-05-28T03:17:47.140Z,10
2016-05-28T03:20:58.042Z,10
2016-05-28T03:24:08.551Z,9.9
2016-05-28T03:27:28.495Z,9.9
2016-05-28T03:30:31.582Z,9.9
2016-05-28T03:33:44.481Z,9.9
2016-05-28T03:36:57.132Z,9.9
2016-05-28T03:40:10.140Z,9.9
2016-05-28T03:43:25.601Z,9.9
2016-05-28T03:46:28.422Z,9.9
2016-05-28T03:49:40.946Z,9.9
2016-05-28T03:52:53.704Z,9.9
2016-05-28T03:56:06.542Z,10
2016-05-28T03:59:24.113Z,10
2016-05-28T04:02:32.168Z,10
2016-05-28T04:05:35.067Z,10.1
2016-05-28T04:08:47.902Z,10.2
2016-05-28T04:12:00.727Z,10.2
2016-05-28T04:15:13.094Z,10.2
2016-05-28T04:18:30.852Z,10.2
2016-05-28T04:21:33.688Z,10.2
2016-05-28T04:24:46.696Z,10.2
2016-05-28T04:27:59.722Z,10.3
2016-05-28T04:31:12.824Z,10.4
2016-05-28T04:34:30.832Z,10.5
2016-05-28T04:37:33.700Z,10.6
2016-05-28T04:40:44.645Z,10.7
2016-05-28T04:43:57.422Z,10.9
2016-05-28T04:47:10.571Z,11
2016-05-28T04:50:28.547Z,11.2
2016-05-28T04:53:31.587Z,11.3
2016-05-28T04:56:44.579Z,11.3
2016-05-28T04:59:57.606Z,11.6
2016-05-28T05:03:10.754Z,11.9
2016-05-28T05:06:28.699Z,11.9
2016-05-28T05:09:31.867Z,12.1
2016-05-28T05:12:44.651Z,12.4
2016-05-28T05:15:57.488Z,12.4
2016-05-28T05:19:10.390Z,12.3
2016-05-28T05:22:28.564Z,12.4
2016-05-28T05:25:31.623Z,12.4
2016-05-28T05:28:42.791Z,12.8
2016-05-28T05:31:57.866Z,13.4
2016-05-28T05:35:09.357Z,14.1
2016-05-28T05:38:29.585Z,14.9
2016-05-28T05:41:33.249Z,15.6
2016-05-28T05:44:44.976Z,16.2
2016-05-28T05:47:58.658Z,16.9
2016-05-28T05:51:12.198Z,17.5
2016-05-28T05:54:30.769Z,18
2016-05-28T05:57:34.683Z,18.5
2016-05-28T06:00:48.629Z,19.1
2016-05-28T06:04:02.655Z,19.7
2016-05-28T06:07:15.334Z,20.4
2016-05-28T06:10:29.171Z,21.3
2016-05-28T06:13:43.101Z,22.2
2016-05-28T06:16:54.250Z,23
2016-05-28T06:20:08.292Z,23.7
2016-05-28T06:23:27.394Z,24.3
2016-05-28T06:26:31.949Z,24.7
2016-05-28T06:29:46.082Z,25.1
2016-05-28T06:33:00.436Z,25.7
2016-05-28T06:36:14.382Z,26
2016-05-28T06:39:28.593Z,26.3
2016-05-28T06:42:43.132Z,26.7
2016-05-28T06:45:57.250Z,27
2016-05-28T06:49:11.573Z,27.1
2016-05-28T06:52:30.956Z,27.2
2016-05-28T06:55:35.730Z,27.6
2016-05-28T06:58:49.942Z,27.8
2016-05-28T07:02:04.311Z,28
2016-05-28T07:05:24.413Z,28.2
2016-05-28T07:08:29.765Z,28.7
2016-05-28T07:11:45.023Z,29
2016-05-28T07:15:00.109Z,28.8
2016-05-28T07:18:15.292Z,29
2016-05-28T07:21:30.533Z,29.4
2016-05-28T07:24:45.620Z,29.5
2016-05-28T07:28:00.878Z,29.6
2016-05-28T07:31:13.982Z,30.1
2016-05-28T07:34:31.100Z,30.5
2016-05-28T07:37:46.124Z,31
2016-05-28T07:41:01.288Z,31.1
2016-05-28T07:44:15.893Z,31.4
2016-05-28T07:47:35.306Z,31.8
2016-05-28T07:50:46.128Z,32.1
2016-05-28T07:53:59.479Z,32.3
2016-05-28T07:57:14.631Z,32.3
2016-05-28T08:00:29.716Z,32.4
2016-05-28T08:03:44.725Z,32.9
2016-05-28T08:06:59.952Z,33.2
2016-05-28T08:10:15.104Z,33.7
2016-05-28T08:13:31.783Z,33.7
2016-05-28T08:16:37.370Z,33.9
2016-05-28T08:19:53.534Z,34.3
2016-05-28T08:23:07.919Z,34.8
2016-05-28T08:26:25.833Z,35.2
2016-05-28T08:29:31.420Z,35.1
2016-05-28T08:32:46.725Z,35.3
2016-05-28T08:36:01.842Z,35.2
2016-05-28T08:39:15.025Z,35.4
2016-05-28T08:42:32.315Z,35.3
2016-05-28T08:45:47.510Z,35.1
2016-05-28T08:49:03.737Z,35.2
2016-05-28T08:52:17.684Z,35.4
2016-05-28T08:55:32.662Z,35.7
2016-05-28T08:58:47.825Z,35.6
2016-05-28T09:02:02.600Z,34.7
2016-05-28T09:05:18.064Z,33.6
2016-05-28T09:08:32.384Z,33.8
2016-05-28T09:11:47.908Z,34.3
2016-05-28T09:15:02.447Z,32.4
2016-05-28T09:18:14.927Z,31
2016-05-28T09:21:30.200Z,32.2
2016-05-28T09:24:45.428Z,32.7
2016-05-28T09:27:59.701Z,31.3
2016-05-28T09:31:13.978Z,29.5
2016-05-28T09:34:28.844Z,28.2
2016-05-28T09:37:42.946Z,28.3
2016-05-28T09:40:58.251Z,29.5
2016-05-28T09:44:13.668Z,31.4
2016-05-28T09:47:29.099Z,32.2
2016-05-28T09:50:44.309Z,33.1
2016-05-28T09:53:59.755Z,33.7
2016-05-28T09:57:13.406Z,32.2
2016-05-28T10:00:32.696Z,30
2016-05-28T10:03:37.219Z,28.3
2016-05-28T10:06:52.180Z,28.4
2016-05-28T10:10:07.442Z,28.7
2016-05-28T10:13:24.246Z,28.8
2016-05-28T10:16:29.411Z,28.5
2016-05-28T10:19:42.388Z,28.1
2016-05-28T10:22:58.677Z,27.7
2016-05-28T10:26:13.141Z,27.2
2016-05-28T10:29:32.477Z,27
2016-05-28T10:32:37.407Z,26.6
2016-05-28T10:35:51.650Z,26.3
2016-05-28T10:39:06.001Z,25.9
2016-05-28T10:42:24.762Z,25.8
2016-05-28T10:45:29.707Z,25.5
2016-05-28T10:48:44.043Z,24.9
2016-05-28T10:51:57.802Z,24.4
2016-05-28T10:55:11.563Z,24.3
2016-05-28T10:58:30.509Z,23.6
2016-05-28T11:01:34.875Z,23
2016-05-28T11:04:48.462Z,22.6
2016-05-28T11:08:02.455Z,22.4
2016-05-28T11:11:16.371Z,22.5
2016-05-28T11:14:30.380Z,22.5
2016-05-28T11:17:44.607Z,22.4
2016-05-28T11:20:59.161Z,22.6
2016-05-28T11:24:13.171Z,22.8
2016-05-28T11:27:31.351Z,22.8
2016-05-28T11:30:36.048Z,23
2016-05-28T11:33:50.446Z,23
2016-05-28T11:37:04.563Z,23
2016-05-28T11:40:16.902Z,23
2016-05-28T11:43:33.269Z,23
2016-05-28T11:46:47.528Z,23
2016-05-28T11:50:01.848Z,23
2016-05-28T11:53:16.343Z,23
2016-05-28T11:56:30.993Z,23
2016-05-28T11:59:43.984Z,23
2016-05-28T12:02:58.103Z,23.1
2016-05-28T12:06:09.876Z,23.1
2016-05-28T12:09:29.387Z,22.9
2016-05-28T12:12:36.879Z,22.8
2016-05-28T12:15:48.403Z,22.9
2016-05-28T12:19:02.849Z,22.9
2016-05-28T12:22:17.343Z,22.9
2016-05-28T12:25:31.649Z,22.8
2016-05-28T12:28:46.109Z,22.8
2016-05-28T12:32:00.398Z,22.8
2016-05-28T12:35:13.735Z,22.7
2016-05-28T12:38:32.590Z,22.6
2016-05-28T12:41:35.129Z,22.6
2016-05-28T12:44:51.169Z,22.6
2016-05-28T12:48:05.067Z,22.6
2016-05-28T12:51:18.827Z,22.6
2016-05-28T12:54:32.992Z,22.7
2016-05-28T12:57:47.359Z,22.8
2016-05-28T13:01:01.930Z,22.9
2016-05-28T13:04:16.473Z,23
2016-05-28T13:07:34.637Z,23
2016-05-28T13:10:39.347Z,22.9
2016-05-28T13:13:53.653Z,22.8
2016-05-28T13:17:07.989Z,22.7
2016-05-28T13:20:27.516Z,22.7
2016-05-28T13:23:32.289Z,22.6
2016-05-28T13:26:46.485Z,22.7
2016-05-28T13:30:00.774Z,22.8
2016-05-28T13:33:15.360Z,22.7
2016-05-28T13:36:34.731Z,22.5
2016-05-28T13:39:39.364Z,22.4
2016-05-28T13:42:53.778Z,22.5
2016-05-28T13:46:08.083Z,22.3
2016-05-28T13:49:27.452Z,22.3
2016-05-28T13:52:33.820Z,22.4
2016-05-28T13:55:46.344Z,22.4
2016-05-28T13:59:00.586Z,22.4
2016-05-28T14:02:14.844Z,22.4
2016-05-28T14:05:34.605Z,22.4
2016-05-28T14:08:38.848Z,22.4
2016-05-28T14:11:49.995Z,22.3
2016-05-28T14:15:02.160Z,22.3
2016-05-28T14:18:16.489Z,22.3
2016-05-28T14:21:35.837Z,22.2
2016-05-28T14:24:38.477Z,22.2
2016-05-28T14:27:54.604Z,22.1
2016-05-28T14:31:06.165Z,22
2016-05-28T14:34:20.539Z,22
2016-05-28T14:37:36.643Z,22
2016-05-28T14:40:48.839Z,21.9
2016-05-28T14:44:03.112Z,21.8
2016-05-28T14:47:17.542Z,21.8
2016-05-28T14:50:31.522Z,21.7
2016-05-28T14:53:45.983Z,21.6
2016-05-28T14:56:58.257Z,21.5
2016-05-28T15:00:12.437Z,21.4
2016-05-28T15:03:31.822Z,21.4
2016-05-28T15:06:36.409Z,21.3
2016-05-28T15:09:50.885Z,21.3
2016-05-28T15:13:05.206Z,21.2
2016-05-28T15:16:19.729Z,21.1
2016-05-28T15:19:33.740Z,21.1
2016-05-28T15:22:50.514Z,21.1
2016-05-28T15:26:02.100Z,21.1
2016-05-28T15:29:16.343Z,21
2016-05-28T15:32:38.244Z,21
2016-05-28T15:35:40.190Z,21
2016-05-28T15:38:52.151Z,20.9
2016-05-28T15:42:08.174Z,20.9
2016-05-28T15:45:27.514Z,20.8
2016-05-28T15:48:32.100Z,20.7
2016-05-28T15:51:46.233Z,20.7
2016-05-28T15:55:00.445Z,20.7
2016-05-28T15:58:14.530Z,20.7
2016-05-28T16:01:33.744Z,20.7
2016-05-28T16:04:38.361Z,20.7
2016-05-28T16:07:50.776Z,20.8
2016-05-28T16:11:04.971Z,20.9
2016-05-28T16:14:19.104Z,21
2016-05-28T16:17:33.303Z,21
2016-05-28T16:20:48.451Z,21
2016-05-28T16:24:01.662Z,20.9
2016-05-28T16:27:15.781Z,20.8
2016-05-28T16:30:32.588Z,20.7
2016-05-28T16:33:34.955Z,20.7
2016-05-28T16:36:51.261Z,20.6
2016-05-28T16:40:05.659Z,20.6
2016-05-28T16:43:19.776Z,20.6
2016-05-28T16:46:33.834Z,20.6
2016-05-28T16:49:48.014Z,20.6
2016-05-28T16:53:02.272Z,20.6
2016-05-28T16:56:16.655Z,20.6
2016-05-28T16:59:35.666Z,20.6
2016-05-28T17:02:40.127Z,20.5
2016-05-28T17:05:51.870Z,20.5
2016-05-28T17:09:05.940Z,20.5
2016-05-28T17:12:19.746Z,20.5
2016-05-28T17:15:33.599Z,20.4
2016-05-28T17:18:47.795Z,20.4
2016-05-28T17:23:51.371Z,20.3
2016-05-28T17:27:04.582Z,20.3
2016-05-28T17:30:18.339Z,20.3
2016-05-28T17:33:32.305Z,20.3
2016-05-28T17:36:46.141Z,20.2
2016-05-28T17:39:59.773Z,20.1
2016-05-28T17:43:13.766Z,20
2016-05-28T17:46:32.714Z,19.9
2016-05-28T17:49:37.426Z,19.8
2016-05-28T17:52:50.684Z,19.7
2016-05-28T17:56:04.003Z,19.5
2016-05-28T17:59:16.183Z,19.4
2016-05-28T18:02:34.570Z,19.3
2016-05-28T18:05:38.890Z,19.1
2016-05-28T18:08:52.632Z,19
2016-05-28T18:12:06.546Z,18.9
2016-05-28T18:15:19.805Z,18.8
2016-05-28T18:18:33.409Z,18.8
2016-05-28T18:21:47.245Z,18.7
2016-05-28T18:25:01.191Z,18.7
2016-05-28T18:28:15.105Z,18.6
2016-05-28T18:31:33.428Z,18.5
2016-05-28T18:34:37.608Z,18.4
2016-05-28T18:37:51.304Z,18.4
2016-05-28T18:41:05.266Z,18.3
2016-05-28T18:44:19.351Z,18.3
2016-05-28T18:47:33.284Z,18.2
2016-05-28T18:50:47.104Z,18.1
2016-05-28T18:54:01.097Z,18
2016-05-28T18:57:14.762Z,18
2016-05-28T19:00:33.664Z,17.9
2016-05-28T19:03:37.734Z,17.8
2016-05-28T19:06:51.538Z,17.7
2016-05-28T19:10:05.327Z,17.6
2016-05-28T19:13:19.116Z,17.6
2016-05-28T19:16:32.721Z,17.5
2016-05-28T19:19:47.135Z,17.4
2016-05-28T19:23:00.879Z,17.4
2016-05-28T19:26:14.512Z,17.3
2016-05-28T19:29:33.647Z,17.2
2016-05-28T19:32:37.670Z,17.2
2016-05-28T19:35:51.428Z,17.1
2016-05-28T19:39:05.186Z,17
2016-05-28T19:42:18.914Z,16.9
2016-05-28T19:45:32.702Z,16.9
2016-05-28T19:48:46.433Z,16.8
2016-05-28T19:51:59.690Z,16.7
2016-05-28T19:55:13.215Z,16.6
2016-05-28T19:58:32.035Z,16.5
2016-05-28T20:01:35.983Z,16.4
2016-05-28T20:04:50.148Z,16.4
2016-05-28T20:08:03.405Z,16.3
2016-05-28T20:11:17.147Z,16.3
2016-05-28T20:14:35.831Z,16.2
2016-05-28T20:17:39.808Z,16.2
2016-05-28T20:20:53.629Z,16.1
2016-05-28T20:24:07.246Z,16.1
2016-05-28T20:27:20.895Z,16
2016-05-28T20:30:34.293Z,15.9
2016-05-28T20:33:47.959Z,15.9
2016-05-28T20:37:01.655Z,15.8
2016-05-28T20:40:15.555Z,15.8
2016-05-28T20:43:30.891Z,15.7
2016-05-28T20:46:34.914Z,15.7
2016-05-28T20:49:47.831Z,15.6
2016-05-28T20:53:01.323Z,15.6
2016-05-28T20:56:14.910Z,15.5
2016-05-28T20:59:33.481Z,15.5
2016-05-28T21:02:37.238Z,15.5
2016-05-28T21:05:50.859Z,15.5
2016-05-28T21:09:03.633Z,15.4
2016-05-28T21:12:17.234Z,15.3
2016-05-28T21:15:32.820Z,15.3
2016-05-28T21:18:36.500Z,15.2
2016-05-28T21:21:49.995Z,15.2
2016-05-28T21:25:03.582Z,15.1
2016-05-28T21:28:17.215Z,15.1
2016-05-28T21:31:32.395Z,15.1
2016-05-28T21:34:36.075Z,15.1
2016-05-28T21:37:49.726Z,15
2016-05-28T21:41:03.219Z,15
2016-05-28T21:44:16.710Z,15
2016-05-28T21:47:35.016Z,14.9
2016-05-28T21:50:38.868Z,14.9
2016-05-28T21:53:52.269Z,14.9
2016-05-28T21:57:05.840Z,14.9
2016-05-28T22:00:19.082Z,14.8
2016-05-28T22:03:37.590Z,14.7
2016-05-28T22:06:45.350Z,14.7
2016-05-28T22:09:54.515Z,14.6
2016-05-28T22:13:07.789Z,14.6
2016-05-28T22:16:24.625Z,14.6
2016-05-28T22:19:38.883Z,14.5
2016-05-28T22:22:42.675Z,14.5
2016-05-28T22:25:53.621Z,14.4
2016-05-28T22:29:07.066Z,14.4
2016-05-28T22:32:20.527Z,14.3
2016-05-28T22:35:38.817Z,14.3
2016-05-28T22:38:42.843Z,14.3
2016-05-28T22:41:54.836Z,14.2
2016-05-28T22:45:08.265Z,14.2
2016-05-28T22:48:21.555Z,14.1
2016-05-28T22:51:39.719Z,14.1
2016-05-28T22:54:43.168Z,14
2016-05-28T22:57:56.222Z,14
2016-05-28T23:01:13.808Z,13.9
2016-05-28T23:04:22.770Z,13.9
2016-05-28T23:07:36.107Z,13.9
2016-05-28T23:10:46.273Z,13.9
2016-05-28T23:13:57.203Z,13.9
2016-05-28T23:17:10.367Z,13.8
2016-05-28T23:20:23.469Z,13.8
2016-05-28T23:23:36.863Z,13.8
2016-05-28T23:26:50.212Z,13.7
2016-05-28T23:30:01.545Z,13.7
2016-05-28T23:33:14.845Z,13.6
2016-05-28T23:39:36.591Z,13.6
2016-05-28T23:42:49.652Z,13.6
2016-05-28T23:46:01.145Z,13.6
2016-05-28T23:49:14.091Z,13.5
2016-05-28T23:52:26.380Z,13.5
2016-05-28T23:55:39.294Z,13.5
2016-05-28T23:58:52.398Z,13.5
